Time;durP1;ratioP1;P1;durP2;ratioP2;P2;SDS_P1;SDS_P2;PMS_P1;PMS_P2;Temp;Humidity;BMP_temperature;BMP_pressure;BME280_temperature;BME280_humidity;BME280_pressure;Samples;Min_cycle;Max_cycle;Signal;HPM_P1;HPM_P2
2021/05/06 00:34:22;;;;;;;3.57;3.07;;;7.70;84.80;;;;;;5021204;28;20217;-82
2021/05/06 00:36:49;;;;;;;4.50;3.07;;;7.60;85.10;;;;;;5016434;28;20203;-82
2021/05/06 00:39:20;;;;;;;4.63;3.50;;;7.70;84.70;;;;;;5010828;28;20907;-85
2021/05/06 00:42:01;;;;;;;6.37;3.23;;;7.60;84.60;;;;;;5019950;28;20213;-83
2021/05/06 00:55:48;;;;;;;6.10;3.63;;;7.50;84.40;;;;;;5023913;28;20202;-82
2021/05/06 00:58:36;;;;;;;6.23;3.03;;;7.50;84.60;;;;;;5030737;28;20203;-83
2021/05/06 01:04:20;;;;;;;4.57;3.23;;;7.40;84.90;;;;;;4975191;28;20235;-81
2021/05/06 01:06:59;;;;;;;7.10;3.77;;;7.40;84.80;;;;;;4979985;28;20246;-82
2021/05/06 01:09:30;;;;;;;4.83;3.70;;;7.40;85.00;;;;;;5010249;28;20224;-81
2021/05/06 01:12:00;;;;;;;7.40;3.73;;;7.50;85.00;;;;;;5036152;28;20216;-82
2021/05/06 01:14:27;;;;;;;6.80;4.30;;;7.50;85.00;;;;;;5025573;28;20203;-83
2021/05/06 01:17:13;;;;;;;6.87;4.03;;;7.50;85.10;;;;;;5031431;28;20244;-81
2021/05/06 01:19:42;;;;;;;6.20;3.67;;;7.50;85.00;;;;;;5023439;28;20981;-83
2021/05/06 01:22:11;;;;;;;6.37;3.73;;;7.40;84.90;;;;;;5025690;28;20200;-82
2021/05/06 01:24:38;;;;;;;6.17;4.00;;;7.50;85.00;;;;;;5021563;28;20225;-82
2021/05/06 01:27:10;;;;;;;8.00;3.70;;;7.50;85.00;;;;;;5022044;28;20645;-84
2021/05/06 01:29:42;;;;;;;3.80;3.37;;;7.50;85.00;;;;;;5028652;28;20205;-81
2021/05/06 01:32:18;;;;;;;4.33;3.57;;;7.50;84.80;;;;;;5031900;28;20661;-81
2021/05/06 01:34:50;;;;;;;6.17;3.67;;;7.50;85.00;;;;;;5032604;28;20355;-82
2021/05/06 01:37:23;;;;;;;5.83;3.40;;;7.40;85.30;;;;;;5031707;28;20211;-81
2021/05/06 01:40:03;;;;;;;5.50;3.60;;;7.40;85.00;;;;;;5024233;28;20694;-80
2021/05/06 01:42:34;;;;;;;4.57;3.23;;;7.30;85.30;;;;;;5031004;28;20501;-82
2021/05/06 01:48:04;;;;;;;4.10;2.83;;;7.10;85.30;;;;;;5027442;28;20213;-82
2021/05/06 01:59:07;;;;;;;5.63;2.50;;;7.10;85.20;;;;;;5042549;28;20213;-82
2021/05/06 02:01:34;;;;;;;5.30;2.37;;;7.10;85.40;;;;;;5028175;28;20201;-82
2021/05/06 02:04:06;;;;;;;5.37;2.37;;;7.00;85.50;;;;;;5025092;28;20268;-83
2021/05/06 02:06:33;;;;;;;3.33;2.13;;;7.00;84.80;;;;;;5025073;28;20225;-83
2021/05/06 02:09:03;;;;;;;4.40;2.07;;;7.20;84.70;;;;;;5024041;28;20207;-84
2021/05/06 02:11:31;;;;;;;3.67;2.00;;;7.20;84.70;;;;;;5016734;28;21319;-82
2021/05/06 02:13:59;;;;;;;4.67;2.13;;;7.20;84.10;;;;;;5027484;28;20719;-82
2021/05/06 02:16:35;;;;;;;3.87;1.70;;;7.30;84.00;;;;;;5018094;28;20920;-82
2021/05/06 02:19:04;;;;;;;4.30;1.97;;;7.30;84.00;;;;;;5020062;28;20230;-82
2021/05/06 02:21:33;;;;;;;3.23;1.80;;;7.20;84.10;;;;;;5027173;28;20707;-81
2021/05/06 02:24:02;;;;;;;5.53;2.23;;;7.30;83.90;;;;;;5022194;28;20328;-84
2021/05/06 02:26:29;;;;;;;6.27;2.17;;;7.30;83.80;;;;;;5020874;28;20332;-81
2021/05/06 02:28:57;;;;;;;6.60;2.00;;;7.20;84.20;;;;;;5020900;28;20341;-84
2021/05/06 02:31:27;;;;;;;3.07;1.80;;;7.20;84.10;;;;;;5026745;28;20230;-83
2021/05/06 02:33:54;;;;;;;4.03;2.30;;;7.30;84.10;;;;;;5019575;28;20280;-83
2021/05/06 02:36:23;;;;;;;2.70;2.40;;;7.20;84.20;;;;;;5026820;28;20202;-82
2021/05/06 02:38:50;;;;;;;2.40;2.20;;;7.20;84.30;;;;;;5043587;28;20218;-81
2021/05/06 02:41:19;;;;;;;2.97;2.63;;;7.20;84.50;;;;;;5025876;28;20203;-83
2021/05/06 02:43:46;;;;;;;3.20;2.13;;;7.10;84.80;;;;;;5027014;28;20186;-82
2021/05/06 02:46:14;;;;;;;3.63;2.30;;;7.00;85.30;;;;;;5029338;28;20229;-83
2021/05/06 02:48:41;;;;;;;5.03;2.50;;;7.00;85.60;;;;;;5020325;28;20218;-83
2021/05/06 02:51:10;;;;;;;3.47;3.17;;;7.00;85.70;;;;;;5023343;28;20204;-83
2021/05/06 02:53:43;;;;;;;5.30;2.70;;;7.00;85.70;;;;;;5023635;28;20538;-81
2021/05/06 02:56:16;;;;;;;4.23;2.60;;;7.00;85.70;;;;;;5028016;28;20210;-82
2021/05/06 03:04:12;;;;;;;4.27;2.83;;;7.00;85.90;;;;;;5030029;28;20210;-82
2021/05/06 03:06:47;;;;;;;4.73;2.57;;;7.00;85.80;;;;;;5024789;28;20226;-83
2021/05/06 03:09:28;;;;;;;7.33;2.87;;;7.00;85.20;;;;;;5020540;28;20209;-83
2021/05/06 03:12:04;;;;;;;6.73;2.80;;;7.00;85.10;;;;;;5026319;28;20202;-83
2021/05/06 03:14:49;;;;;;;3.20;2.10;;;7.10;84.70;;;;;;5022777;28;20198;-83
2021/05/06 03:22:56;;;;;;;6.03;2.43;;;6.90;84.00;;;;;;5010457;28;20387;-81
2021/05/06 03:25:25;;;;;;;3.73;2.23;;;7.00;84.00;;;;;;5018268;28;20332;-80
2021/05/06 03:27:55;;;;;;;3.27;2.17;;;7.00;83.70;;;;;;5017631;28;20208;-83
2021/05/06 03:30:41;;;;;;;4.47;2.20;;;6.90;84.10;;;;;;5014749;28;20293;-81
2021/05/06 03:36:24;;;;;;;6.33;2.23;;;6.90;83.50;;;;;;5019799;28;20564;-81
2021/05/06 03:41:45;;;;;;;4.73;2.20;;;6.90;83.60;;;;;;5021312;28;20569;-83
2021/05/06 03:44:30;;;;;;;4.03;2.03;;;6.90;83.10;;;;;;5024936;28;20386;-82
2021/05/06 04:11:59;;;;;;;5.27;2.60;;;7.00;83.50;;;;;;5020627;28;20207;-81
2021/05/06 04:17:40;;;;;;;5.63;2.60;;;7.10;83.30;;;;;;5034835;28;20272;-78
2021/05/06 04:25:49;;;;;;;2.83;2.53;;;7.20;83.50;;;;;;5034380;28;20230;-81
2021/05/06 04:31:10;;;;;;;5.93;2.67;;;7.20;83.50;;;;;;5041946;28;20206;-82
2021/05/06 04:36:47;;;;;;;6.00;3.03;;;7.40;83.30;;;;;;5043540;28;20225;-80
2021/05/06 04:39:16;;;;;;;4.13;2.73;;;7.40;83.10;;;;;;5055520;28;20186;-80
2021/05/06 04:41:48;;;;;;;3.23;2.60;;;7.40;83.10;;;;;;5044163;28;20200;-83
2021/05/06 04:55:29;;;;;;;4.03;2.73;;;7.50;82.80;;;;;;5042066;28;20191;-81
2021/05/06 04:58:09;;;;;;;4.40;2.50;;;7.60;82.20;;;;;;5049602;28;20179;-83
2021/05/06 05:06:17;;;;;;;3.93;2.80;;;7.80;82.30;;;;;;5018363;28;20308;-83
2021/05/06 05:08:49;;;;;;;5.30;2.57;;;7.80;81.90;;;;;;5018943;28;20301;-81
2021/05/06 05:25:06;;;;;;;6.40;2.60;;;7.90;81.20;;;;;;5040057;28;20662;-80
2021/05/06 05:27:34;;;;;;;7.33;2.50;;;8.00;81.30;;;;;;5043774;28;20189;-83
2021/05/06 05:30:01;;;;;;;6.53;2.70;;;8.10;80.90;;;;;;5040188;28;20218;-81
2021/05/06 05:32:29;;;;;;;7.00;2.63;;;8.20;81.10;;;;;;5047683;28;20196;-79
2021/05/06 05:34:59;;;;;;;5.97;2.60;;;8.30;81.20;;;;;;5034098;28;20197;-78
2021/05/06 05:37:31;;;;;;;7.87;2.70;;;8.40;80.90;;;;;;5035086;28;20206;-80
2021/05/06 05:40:11;;;;;;;5.33;2.70;;;8.50;80.50;;;;;;5035943;28;21472;-80
2021/05/06 05:42:52;;;;;;;7.23;3.13;;;8.50;80.70;;;;;;5031576;28;20237;-80
2021/05/06 05:56:29;;;;;;;7.37;2.73;;;8.80;80.10;;;;;;5018031;28;20229;-77
2021/05/06 05:58:57;;;;;;;3.70;2.27;;;8.70;79.50;;;;;;5015288;28;20724;-79
2021/05/06 06:01:27;;;;;;;7.83;2.87;;;8.70;79.50;;;;;;5011038;28;20215;-82
2021/05/06 06:03:55;;;;;;;4.27;3.00;;;8.80;79.90;;;;;;5016778;28;20198;-82
2021/05/06 06:06:22;;;;;;;6.63;2.47;;;8.90;79.80;;;;;;5017967;28;20251;-80
2021/05/06 06:08:50;;;;;;;6.33;2.90;;;8.90;79.30;;;;;;5015473;28;20198;-79
2021/05/06 06:11:18;;;;;;;4.70;2.47;;;9.00;79.20;;;;;;5013374;28;20986;-78
2021/05/06 06:13:48;;;;;;;7.40;2.53;;;9.00;79.00;;;;;;5012021;28;20551;-80
2021/05/06 06:16:22;;;;;;;5.70;2.23;;;9.00;78.40;;;;;;5008765;28;20210;-79
2021/05/06 06:18:52;;;;;;;6.90;3.57;;;8.70;78.30;;;;;;5012743;28;20788;-79
2021/05/06 06:21:23;;;;;;;6.33;2.57;;;8.80;78.60;;;;;;5003760;28;20323;-81
2021/05/06 06:23:52;;;;;;;6.33;2.37;;;8.90;78.70;;;;;;5001629;28;20547;-81
2021/05/06 06:26:20;;;;;;;6.73;3.00;;;8.90;78.60;;;;;;5003459;28;20245;-80
2021/05/06 06:28:50;;;;;;;6.73;2.63;;;9.00;78.10;;;;;;4998064;28;20828;-79
2021/05/06 06:31:20;;;;;;;4.87;2.63;;;9.00;77.90;;;;;;5003485;28;20197;-79
2021/05/06 06:33:49;;;;;;;7.47;2.23;;;8.80;77.70;;;;;;5007108;28;20259;-80
2021/05/06 06:36:18;;;;;;;5.23;2.30;;;8.90;77.90;;;;;;5012103;28;20198;-81
2021/05/06 06:38:46;;;;;;;6.23;2.97;;;8.90;77.60;;;;;;5010072;28;20271;-80
2021/05/06 06:41:13;;;;;;;6.13;2.50;;;8.90;77.70;;;;;;5009579;28;20222;-82
2021/05/06 06:43:44;;;;;;;3.50;2.67;;;8.90;77.70;;;;;;5021282;28;20549;-80
2021/05/06 06:46:11;;;;;;;6.03;2.87;;;8.90;77.90;;;;;;5008351;28;20353;-79
2021/05/06 06:48:40;;;;;;;4.17;2.90;;;9.30;77.70;;;;;;5012266;28;20698;-81
2021/05/06 06:51:07;;;;;;;4.47;2.50;;;9.30;76.90;;;;;;5005093;28;20233;-81
2021/05/06 06:53:35;;;;;;;5.67;2.80;;;9.30;76.90;;;;;;5008018;28;20307;-78
2021/05/06 06:56:03;;;;;;;7.17;3.00;;;9.40;77.40;;;;;;5005099;28;20444;-78
2021/05/06 06:58:31;;;;;;;4.93;3.10;;;9.50;77.20;;;;;;4995852;28;21496;-82
2021/05/06 07:01:00;;;;;;;4.57;2.87;;;9.80;76.50;;;;;;5000111;28;20213;-81
2021/05/06 07:03:28;;;;;;;5.90;3.03;;;9.90;76.50;;;;;;5001083;28;20194;-80
2021/05/06 07:05:56;;;;;;;6.47;3.00;;;10.00;76.30;;;;;;5009187;28;20649;-79
2021/05/06 07:08:27;;;;;;;6.37;2.77;;;10.10;77.50;;;;;;4992205;28;20298;-84
2021/05/06 07:10:57;;;;;;;4.90;2.63;;;10.30;76.40;;;;;;5000493;28;20735;-80
2021/05/06 07:13:25;;;;;;;4.23;2.47;;;10.30;74.90;;;;;;4998474;28;20228;-80
2021/05/06 07:15:56;;;;;;;5.10;2.40;;;10.40;74.40;;;;;;4999727;28;20707;-80
2021/05/06 07:18:24;;;;;;;4.83;2.67;;;10.40;75.40;;;;;;4995795;28;20244;-80
2021/05/06 07:20:52;;;;;;;4.97;2.60;;;10.40;74.70;;;;;;5000422;28;20675;-81
2021/05/06 07:23:23;;;;;;;6.00;2.70;;;10.40;75.00;;;;;;5006545;28;20194;-81
2021/05/06 07:25:56;;;;;;;6.00;2.60;;;10.50;74.50;;;;;;5001280;28;20945;-80
2021/05/06 07:28:31;;;;;;;5.73;2.50;;;10.50;74.10;;;;;;5002178;28;20219;-80
2021/05/06 07:31:03;;;;;;;4.23;2.20;;;10.60;74.50;;;;;;5007736;28;20207;-80
2021/05/06 07:33:34;;;;;;;3.67;2.10;;;10.60;73.70;;;;;;4998599;28;20503;-81
2021/05/06 07:36:10;;;;;;;6.03;2.20;;;10.60;73.20;;;;;;4992725;28;20366;-82
2021/05/06 07:38:42;;;;;;;2.87;2.17;;;10.70;72.80;;;;;;4993441;28;20530;-79
2021/05/06 07:41:13;;;;;;;3.30;2.00;;;10.60;71.50;;;;;;4998709;28;20576;-79
2021/05/06 07:43:44;;;;;;;4.93;2.47;;;10.40;71.10;;;;;;4994144;28;20235;-77
2021/05/06 07:46:14;;;;;;;3.10;2.00;;;10.40;70.30;;;;;;5009863;28;20229;-81
2021/05/06 07:48:48;;;;;;;3.13;2.27;;;10.30;70.30;;;;;;5004564;28;20210;-80
2021/05/06 07:51:18;;;;;;;4.50;2.20;;;10.20;70.70;;;;;;5013599;28;20255;-79
2021/05/06 07:53:52;;;;;;;4.23;1.70;;;10.30;70.40;;;;;;5003507;28;20498;-79
2021/05/06 07:56:23;;;;;;;6.57;2.27;;;10.20;69.70;;;;;;5007534;28;20453;-81
2021/05/06 07:58:51;;;;;;;4.73;2.50;;;10.10;70.60;;;;;;5004701;28;20272;-81
2021/05/06 08:01:19;;;;;;;5.97;2.60;;;10.30;71.00;;;;;;4999859;28;20198;-79
2021/05/06 08:03:47;;;;;;;3.73;2.10;;;10.50;71.00;;;;;;4988324;28;20500;-79
2021/05/06 08:06:20;;;;;;;5.47;2.10;;;10.70;71.20;;;;;;4996059;28;20424;-80
2021/05/06 08:08:52;;;;;;;4.83;2.40;;;10.70;69.80;;;;;;4998102;28;20290;-81
2021/05/06 08:11:21;;;;;;;3.47;2.33;;;10.70;71.30;;;;;;4998656;28;20202;-77
2021/05/06 08:13:48;;;;;;;3.20;1.90;;;10.80;70.20;;;;;;5009223;28;20206;-79
2021/05/06 08:16:16;;;;;;;4.90;2.17;;;10.60;68.30;;;;;;5013023;28;20223;-83
2021/05/06 08:18:43;;;;;;;5.67;2.70;;;10.50;69.30;;;;;;5013152;28;20408;-81
2021/05/06 08:21:11;;;;;;;5.00;2.37;;;10.70;70.70;;;;;;5011344;28;20194;-79
2021/05/06 08:23:40;;;;;;;5.43;2.50;;;11.10;70.60;;;;;;4999315;28;20954;-76
2021/05/06 08:26:09;;;;;;;6.17;3.00;;;11.30;69.90;;;;;;4998561;28;20267;-79
2021/05/06 08:28:53;;;;;;;6.47;2.60;;;11.20;70.50;;;;;;5009934;28;20536;-81
2021/05/06 08:31:21;;;;;;;3.90;2.33;;;11.20;70.10;;;;;;5006405;28;20268;-78
2021/05/06 08:33:49;;;;;;;3.93;2.33;;;11.20;68.70;;;;;;5012475;28;20710;-79
2021/05/06 08:36:16;;;;;;;4.40;2.13;;;11.20;69.60;;;;;;5005209;28;20499;-79
2021/05/06 08:38:44;;;;;;;6.00;2.50;;;11.40;69.40;;;;;;5006898;28;20218;-80
2021/05/06 08:41:14;;;;;;;4.37;2.30;;;11.30;69.20;;;;;;5009581;28;20222;-80
2021/05/06 08:43:45;;;;;;;5.57;2.53;;;11.20;68.40;;;;;;5010563;28;20216;-82
2021/05/06 08:46:13;;;;;;;5.70;2.40;;;11.10;67.90;;;;;;5007419;28;20229;-80
2021/05/06 08:49:02;;;;;;;4.43;2.30;;;11.10;68.10;;;;;;5029300;28;21376;-80
2021/05/06 08:51:30;;;;;;;4.43;2.50;;;11.20;67.50;;;;;;5016713;28;20690;-81
2021/05/06 08:53:58;;;;;;;4.33;2.40;;;11.20;67.30;;;;;;5024535;28;20295;-80
2021/05/06 08:56:26;;;;;;;4.00;2.20;;;11.30;66.30;;;;;;5026070;28;20210;-80
2021/05/06 08:58:54;;;;;;;3.07;2.10;;;11.30;65.30;;;;;;5027151;28;20637;-81
2021/05/06 09:01:22;;;;;;;3.70;2.00;;;11.40;66.90;;;;;;5014788;28;20419;-80
2021/05/06 09:03:50;;;;;;;2.70;2.07;;;11.60;68.00;;;;;;5018151;28;20206;-82
2021/05/06 09:06:19;;;;;;;4.90;2.43;;;11.70;65.40;;;;;;5024235;28;20236;-82
2021/05/06 09:08:49;;;;;;;2.27;2.00;;;11.70;65.00;;;;;;5013337;28;20375;-80
2021/05/06 09:11:29;;;;;;;4.63;2.50;;;11.50;65.40;;;;;;5009027;28;20276;-79
2021/05/06 09:14:04;;;;;;;3.97;2.10;;;11.40;65.20;;;;;;5002200;28;20851;-80
2021/05/06 09:16:35;;;;;;;4.13;2.10;;;11.50;67.70;;;;;;4998341;28;20194;-81
2021/05/06 09:19:08;;;;;;;5.03;2.13;;;11.70;64.90;;;;;;5010955;28;20213;-80
2021/05/06 09:21:37;;;;;;;4.67;2.03;;;11.60;65.30;;;;;;5005111;28;21488;-81
2021/05/06 09:24:08;;;;;;;3.50;2.40;;;11.60;66.40;;;;;;5007043;28;20558;-80
2021/05/06 09:26:38;;;;;;;4.10;2.27;;;11.70;64.70;;;;;;5002102;28;20244;-81
2021/05/06 09:29:07;;;;;;;4.47;2.37;;;11.60;63.80;;;;;;5007337;28;22178;-80
2021/05/06 09:31:37;;;;;;;4.50;2.00;;;11.70;63.60;;;;;;4998091;28;20199;-82
2021/05/06 09:34:07;;;;;;;3.63;2.00;;;11.80;64.50;;;;;;4998030;28;20272;-82
2021/05/06 09:36:35;;;;;;;5.70;2.30;;;12.00;65.80;;;;;;5005552;28;20199;-79
2021/05/06 09:39:05;;;;;;;4.70;1.97;;;12.30;64.20;;;;;;4991883;28;20206;-80
2021/05/06 09:41:34;;;;;;;3.80;1.80;;;12.30;62.30;;;;;;4995622;28;20206;-78
2021/05/06 09:44:10;;;;;;;3.97;2.23;;;12.20;62.30;;;;;;4998925;28;20521;-82
2021/05/06 09:46:56;;;;;;;6.47;2.43;;;12.10;62.00;;;;;;5009685;28;20521;-81
2021/05/06 09:49:25;;;;;;;2.90;2.10;;;12.00;62.10;;;;;;5009673;28;20194;-82
2021/05/06 09:51:55;;;;;;;10.70;2.47;;;11.80;61.10;;;;;;5004648;28;20306;-79
2021/05/06 09:54:25;;;;;;;3.37;2.03;;;11.70;61.70;;;;;;5011148;28;20198;-78
2021/05/06 09:56:58;;;;;;;6.47;2.10;;;11.80;61.50;;;;;;5006575;28;20731;-81
2021/05/06 09:59:28;;;;;;;3.07;2.07;;;11.80;61.30;;;;;;5000382;28;20199;-79
2021/05/06 10:02:07;;;;;;;6.77;2.43;;;11.80;61.90;;;;;;4999354;28;20206;-81
2021/05/06 10:04:36;;;;;;;5.97;2.20;;;11.70;61.70;;;;;;4998497;28;20696;-81
2021/05/06 10:07:13;;;;;;;6.37;2.23;;;11.80;62.40;;;;;;5001195;28;20226;-82
2021/05/06 10:09:55;;;;;;;5.70;2.30;;;12.00;61.90;;;;;;5005549;28;20507;-79
2021/05/06 10:12:25;;;;;;;3.73;2.47;;;12.10;62.50;;;;;;5003930;28;20248;-80
2021/05/06 10:14:54;;;;;;;4.90;2.37;;;12.20;61.90;;;;;;5008521;28;20781;-79
2021/05/06 10:17:24;;;;;;;3.80;2.30;;;12.20;62.30;;;;;;5003779;28;20209;-78
2021/05/06 10:19:53;;;;;;;4.67;2.30;;;12.20;62.60;;;;;;5010574;28;20199;-78
2021/05/06 10:22:22;;;;;;;3.50;2.20;;;12.30;62.40;;;;;;5000285;28;20226;-81
2021/05/06 10:24:54;;;;;;;5.10;2.30;;;12.30;61.40;;;;;;5009389;28;20202;-81
2021/05/06 10:27:24;;;;;;;3.80;2.23;;;12.40;61.00;;;;;;5003425;28;20688;-79
2021/05/06 10:29:56;;;;;;;4.40;2.30;;;12.20;59.70;;;;;;5004542;28;20206;-79
2021/05/06 10:32:26;;;;;;;2.90;2.20;;;12.10;60.00;;;;;;4999794;28;21547;-78
2021/05/06 10:34:55;;;;;;;4.53;2.37;;;12.10;58.90;;;;;;5010256;28;20210;-81
2021/05/06 10:37:27;;;;;;;2.83;2.17;;;12.20;59.00;;;;;;5008420;28;20202;-80
2021/05/06 10:39:54;;;;;;;4.53;2.67;;;12.20;59.90;;;;;;5011617;28;20206;-80
2021/05/06 10:42:32;;;;;;;3.77;2.40;;;12.20;59.90;;;;;;5003138;28;20277;-81
2021/05/06 10:45:03;;;;;;;2.37;2.10;;;12.30;59.70;;;;;;5010361;28;21775;-79
2021/05/06 10:47:52;;;;;;;4.03;2.50;;;12.30;59.00;;;;;;5017947;28;20229;-80
2021/05/06 10:50:23;;;;;;;2.10;1.90;;;12.50;58.00;;;;;;5010652;28;20199;-81
2021/05/06 10:52:52;;;;;;;3.10;2.10;;;12.60;57.00;;;;;;5015402;28;20210;-81
2021/05/06 10:55:46;;;;;;;2.60;2.23;;;12.60;56.30;;;;;;5019636;28;21311;-82
2021/05/06 10:58:34;;;;;;;3.10;2.20;;;12.30;55.90;;;;;;4999905;28;20612;-79
2021/05/06 11:01:21;;;;;;;3.77;2.30;;;12.30;55.80;;;;;;5008579;28;20862;-78
2021/05/06 11:04:09;;;;;;;3.37;2.23;;;12.40;55.20;;;;;;5000031;28;21026;-79
2021/05/06 11:06:42;;;;;;;2.43;2.23;;;12.50;56.00;;;;;;5004733;28;20721;-81
2021/05/06 11:09:47;;;;;;;2.90;2.40;;;12.50;54.20;;;;;;5000709;28;20223;-80
2021/05/06 11:12:22;;;;;;;4.30;2.27;;;12.60;54.70;;;;;;4958519;28;20633;-80
2021/05/06 11:15:23;;;;;;;3.40;2.20;;;12.90;55.50;;;;;;5004919;28;20205;-80
2021/05/06 11:17:52;;;;;;;8.23;2.50;;;13.10;54.50;;;;;;4998507;28;20790;-80
2021/05/06 11:20:52;;;;;;;6.83;2.50;;;13.20;53.20;;;;;;5013506;28;20472;-82
2021/05/06 11:23:29;;;;;;;5.07;2.67;;;13.10;53.10;;;;;;5018527;28;20219;-80
2021/05/06 11:26:16;;;;;;;7.77;2.40;;;13.10;54.20;;;;;;5017339;28;20202;-81
2021/05/06 11:28:52;;;;;;;4.67;2.20;;;13.00;52.30;;;;;;5005762;28;20403;-82
2021/05/06 11:31:47;;;;;;;3.70;2.30;;;13.00;52.10;;;;;;5016990;28;20229;-80
2021/05/06 11:34:36;;;;;;;4.13;2.73;;;13.00;52.60;;;;;;5011728;28;20233;-81
2021/05/06 11:37:09;;;;;;;4.70;2.30;;;13.00;51.70;;;;;;5005022;28;20279;-82
2021/05/06 11:39:50;;;;;;;3.27;2.30;;;13.10;52.50;;;;;;5007156;28;20289;-82
2021/05/06 11:42:18;;;;;;;4.73;2.40;;;13.40;53.00;;;;;;5007393;28;20218;-81
2021/05/06 11:45:24;;;;;;;3.70;2.27;;;13.70;52.50;;;;;;5011661;28;20225;-80
2021/05/06 11:47:53;;;;;;;2.87;2.40;;;14.00;52.70;;;;;;5006986;28;20325;-81
2021/05/06 11:50:31;;;;;;;5.37;2.63;;;14.30;49.10;;;;;;5006852;28;20460;-80
2021/05/06 11:53:01;;;;;;;4.27;2.70;;;14.10;47.80;;;;;;5003425;28;20199;-80
2021/05/06 11:55:31;;;;;;;3.30;2.47;;;14.00;49.60;;;;;;5018491;28;20285;-80
2021/05/06 11:57:58;;;;;;;3.37;2.37;;;14.20;50.80;;;;;;5000804;28;20214;-80
2021/05/06 12:00:28;;;;;;;3.83;2.77;;;14.30;49.60;;;;;;5011687;28;20198;-82
2021/05/06 12:03:01;;;;;;;4.97;2.57;;;14.50;48.70;;;;;;5008828;28;20320;-82
2021/05/06 12:05:56;;;;;;;6.77;2.77;;;14.40;47.90;;;;;;5012700;28;20217;-80
2021/05/06 12:08:26;;;;;;;5.63;2.60;;;14.30;47.30;;;;;;5009363;28;20620;-80
2021/05/06 12:10:56;;;;;;;5.00;2.70;;;14.10;48.30;;;;;;5010613;28;20207;-78
2021/05/06 12:13:32;;;;;;;2.63;2.40;;;14.20;47.30;;;;;;5002884;28;21096;-80
2021/05/06 12:16:14;;;;;;;5.27;2.47;;;14.20;47.10;;;;;;5004326;28;20215;-81
2021/05/06 12:18:42;;;;;;;3.60;2.50;;;14.10;45.20;;;;;;5007586;28;20364;-79
2021/05/06 12:21:11;;;;;;;4.73;2.60;;;14.00;46.60;;;;;;5009681;28;20211;-82
2021/05/06 12:23:48;;;;;;;3.90;2.30;;;14.00;45.70;;;;;;5014072;28;20558;-79
2021/05/06 12:26:17;;;;;;;4.17;2.47;;;14.10;45.00;;;;;;5011636;28;21136;-78
2021/05/06 12:28:45;;;;;;;2.30;2.00;;;14.10;44.70;;;;;;5006258;28;20292;-84
2021/05/06 12:31:13;;;;;;;2.63;2.40;;;14.00;44.50;;;;;;5017630;28;20218;-81
2021/05/06 12:33:41;;;;;;;2.97;2.40;;;13.70;44.40;;;;;;5017760;28;20213;-79
2021/05/06 12:36:18;;;;;;;4.10;2.50;;;13.50;45.40;;;;;;5017784;28;20214;-83
2021/05/06 12:38:48;;;;;;;2.90;2.60;;;13.40;45.90;;;;;;5021290;28;20600;-80
2021/05/06 12:41:16;;;;;;;3.70;2.67;;;13.50;47.30;;;;;;5009261;28;20516;-83
2021/05/06 12:43:50;;;;;;;4.10;2.40;;;13.60;46.10;;;;;;5019095;28;20268;-78
2021/05/06 12:46:24;;;;;;;3.00;2.40;;;13.80;46.30;;;;;;5013924;28;20217;-81
2021/05/06 12:48:55;;;;;;;4.10;2.30;;;13.90;45.40;;;;;;5009498;28;20294;-79
2021/05/06 12:51:30;;;;;;;3.73;2.37;;;14.00;45.00;;;;;;5007449;28;20327;-81
2021/05/06 12:54:09;;;;;;;4.17;3.10;;;14.30;46.30;;;;;;5008376;28;20557;-79
2021/05/06 12:56:40;;;;;;;4.43;2.40;;;14.40;44.60;;;;;;5019887;28;20195;-77
2021/05/06 12:59:29;;;;;;;3.90;2.30;;;14.40;45.10;;;;;;5019766;28;20214;-80
2021/05/06 13:02:08;;;;;;;3.73;2.47;;;14.30;47.10;;;;;;5018740;28;20413;-83
2021/05/06 13:04:44;;;;;;;3.47;2.80;;;14.10;47.40;;;;;;5019471;28;20209;-80
2021/05/06 13:07:13;;;;;;;5.17;2.80;;;14.20;47.60;;;;;;5008977;28;20234;-83
2021/05/06 13:09:42;;;;;;;6.93;2.60;;;14.20;47.50;;;;;;5007476;28;21197;-82
2021/05/06 13:12:15;;;;;;;5.17;3.30;;;14.20;47.40;;;;;;5015433;28;20215;-81
2021/05/06 13:14:49;;;;;;;10.10;3.10;;;14.10;48.30;;;;;;5016443;28;20253;-83
2021/05/06 13:17:26;;;;;;;6.17;2.53;;;14.00;48.20;;;;;;5011609;28;20355;-81
2021/05/06 13:19:53;;;;;;;3.80;2.67;;;13.70;48.80;;;;;;5014937;28;20210;-81
2021/05/06 13:22:23;;;;;;;3.70;2.53;;;13.60;48.90;;;;;;5011871;28;20214;-78
2021/05/06 13:24:52;;;;;;;5.93;2.90;;;13.40;48.20;;;;;;5015619;28;20206;-80
2021/05/06 13:27:22;;;;;;;4.03;2.93;;;13.30;49.00;;;;;;5015080;28;20223;-84
2021/05/06 13:29:57;;;;;;;4.80;3.03;;;13.20;52.50;;;;;;5013781;28;20191;-80
2021/05/06 13:32:33;;;;;;;3.47;3.00;;;12.90;55.50;;;;;;5011615;28;20370;-81
2021/05/06 13:35:01;;;;;;;4.53;3.50;;;12.70;54.60;;;;;;5015881;28;20202;-81
2021/05/06 13:37:38;;;;;;;4.23;3.20;;;12.60;55.20;;;;;;5021486;28;20817;-82
2021/05/06 13:40:06;;;;;;;3.30;3.07;;;12.70;56.10;;;;;;5026876;28;20222;-82
2021/05/06 13:42:34;;;;;;;4.70;2.93;;;12.70;55.10;;;;;;5024191;28;20796;-83
2021/05/06 13:45:03;;;;;;;3.47;2.73;;;12.60;60.30;;;;;;5029517;28;20242;-86
2021/05/06 13:47:31;;;;;;;2.43;2.23;;;12.60;60.20;;;;;;5010505;28;20322;-82
2021/05/06 13:49:58;;;;;;;2.67;2.23;;;12.80;59.10;;;;;;5010591;28;20792;-83
2021/05/06 13:52:27;;;;;;;3.00;2.20;;;13.20;58.40;;;;;;5020366;28;20984;-81
2021/05/06 13:54:57;;;;;;;4.33;2.50;;;13.50;58.10;;;;;;5021561;28;20209;-83
2021/05/06 13:57:24;;;;;;;3.57;2.70;;;13.70;57.80;;;;;;5015298;28;20210;-81
2021/05/06 13:59:52;;;;;;;2.53;2.33;;;14.10;59.00;;;;;;5017799;28;20653;-82
2021/05/06 14:02:20;;;;;;;3.73;2.73;;;14.80;57.40;;;;;;5006131;28;20222;-80
2021/05/06 14:04:49;;;;;;;2.67;2.30;;;15.30;56.90;;;;;;5019605;28;20654;-83
2021/05/06 14:07:17;;;;;;;2.47;2.27;;;15.80;54.60;;;;;;5018657;28;20231;-83
2021/05/06 14:09:44;;;;;;;3.17;2.40;;;16.70;54.80;;;;;;5017172;28;20206;-82
2021/05/06 14:12:13;;;;;;;4.10;2.37;;;17.60;51.50;;;;;;5023945;28;20387;-83
2021/05/06 14:14:41;;;;;;;1.93;1.83;;;18.10;49.50;;;;;;5025315;28;20213;-82
2021/05/06 14:17:09;;;;;;;3.10;2.40;;;18.10;46.80;;;;;;5018684;28;20224;-82
2021/05/06 14:19:37;;;;;;;3.50;2.43;;;18.10;46.60;;;;;;5018295;28;20209;-82
2021/05/06 14:22:05;;;;;;;2.63;2.20;;;17.80;46.30;;;;;;5021975;28;20206;-79
2021/05/06 14:24:33;;;;;;;2.10;2.00;;;18.00;46.90;;;;;;5018969;28;20206;-81
2021/05/06 14:27:02;;;;;;;2.50;2.27;;;18.50;46.30;;;;;;5032418;28;20225;-80
2021/05/06 14:29:30;;;;;;;2.70;2.40;;;18.50;45.10;;;;;;5020225;28;20202;-82
2021/05/06 14:31:58;;;;;;;4.00;2.40;;;17.40;45.40;;;;;;5025605;28;20883;-82
2021/05/06 14:34:26;;;;;;;3.73;2.50;;;16.30;46.80;;;;;;5019561;28;20463;-84
2021/05/06 14:36:53;;;;;;;4.10;2.60;;;15.50;47.20;;;;;;5025594;28;20240;-80
2021/05/06 14:39:21;;;;;;;3.27;2.30;;;14.80;47.40;;;;;;5023648;28;20216;-82
2021/05/06 14:41:49;;;;;;;2.70;2.50;;;14.40;48.50;;;;;;5020087;28;20870;-81
2021/05/06 14:44:19;;;;;;;3.10;2.20;;;14.60;49.30;;;;;;5029212;28;20285;-81
2021/05/06 14:46:47;;;;;;;2.73;2.33;;;14.90;49.40;;;;;;5019939;28;20210;-82
2021/05/06 14:49:15;;;;;;;2.87;2.20;;;15.50;49.30;;;;;;5017418;28;20546;-83
2021/05/06 14:51:43;;;;;;;2.73;2.20;;;15.90;48.20;;;;;;5020470;28;20853;-80
2021/05/06 14:54:11;;;;;;;2.63;2.20;;;16.10;45.20;;;;;;5029421;28;20191;-84
2021/05/06 14:56:39;;;;;;;2.90;2.60;;;16.70;45.20;;;;;;5027316;28;20199;-85
2021/05/06 14:59:07;;;;;;;2.30;2.10;;;17.00;44.30;;;;;;5015240;28;20213;-81
2021/05/06 15:01:35;;;;;;;2.80;2.43;;;17.30;43.90;;;;;;5023098;28;21177;-83
2021/05/06 15:04:04;;;;;;;2.37;2.17;;;17.80;43.10;;;;;;5035001;28;20217;-84
2021/05/06 15:06:33;;;;;;;3.17;2.60;;;18.20;43.40;;;;;;5025047;28;20199;-83
2021/05/06 15:09:04;;;;;;;2.50;2.30;;;18.80;43.90;;;;;;5021483;28;20213;-81
2021/05/06 15:11:32;;;;;;;2.53;2.27;;;19.10;41.60;;;;;;5027253;28;20354;-82
2021/05/06 15:14:01;;;;;;;3.80;2.30;;;17.80;41.90;;;;;;5026610;28;20719;-89
2021/05/06 15:16:32;;;;;;;2.33;2.13;;;16.50;41.90;;;;;;5030914;28;20305;-85
2021/05/06 15:19:00;;;;;;;5.37;2.40;;;15.80;43.20;;;;;;5029645;28;20688;-81
2021/05/06 15:21:30;;;;;;;3.90;2.13;;;15.20;43.10;;;;;;5030122;28;20230;-84
2021/05/06 15:23:58;;;;;;;2.43;2.23;;;14.80;43.80;;;;;;5047622;28;20265;-83
2021/05/06 15:26:26;;;;;;;3.20;2.30;;;15.10;43.60;;;;;;5039157;28;20234;-81
2021/05/06 15:28:54;;;;;;;2.63;2.07;;;16.10;42.80;;;;;;5042109;28;20250;-81
2021/05/06 15:31:22;;;;;;;3.27;2.20;;;16.90;43.10;;;;;;5043961;28;20202;-82
2021/05/06 15:33:50;;;;;;;2.10;2.00;;;17.90;42.00;;;;;;5048638;28;20191;-84
2021/05/06 15:36:18;;;;;;;3.40;2.20;;;18.30;41.40;;;;;;5057667;28;20194;-80
2021/05/06 15:38:47;;;;;;;3.80;2.23;;;18.00;40.70;;;;;;5044306;28;20278;-80
2021/05/06 15:41:15;;;;;;;2.40;2.20;;;16.90;41.30;;;;;;5035464;28;20213;-83
2021/05/06 15:43:44;;;;;;;3.23;2.60;;;15.90;41.90;;;;;;5036724;28;20198;-82
2021/05/06 15:46:18;;;;;;;2.93;2.30;;;15.10;42.60;;;;;;5042822;28;20210;-81
2021/05/06 15:48:46;;;;;;;2.60;2.40;;;14.70;43.30;;;;;;5044539;28;20235;-79
2021/05/06 15:51:14;;;;;;;2.50;2.30;;;14.20;43.40;;;;;;5033083;28;20265;-82